sensor_id;sensor_type;location;lat;lon;timestamp;P1;durP1;ratioP1;P2;durP2;ratioP2
572;SDS011;271;51.114;13.780;2023-04-06T00:00:27;16.60;;;2.92;;
572;SDS011;271;51.114;13.780;2023-04-06T00:03:15;17.27;;;2.60;;
572;SDS011;271;51.114;13.780;2023-04-06T00:06:04;18.15;;;3.35;;
572;SDS011;271;51.114;13.780;2023-04-06T00:08:52;18.95;;;3.53;;
572;SDS011;271;51.114;13.780;2023-04-06T00:11:40;19.50;;;3.17;;
572;SDS011;271;51.114;13.780;2023-04-06T00:14:28;19.40;;;3.20;;
572;SDS011;271;51.114;13.780;2023-04-06T00:17:16;18.05;;;3.22;;
572;SDS011;271;51.114;13.780;2023-04-06T00:20:05;16.33;;;2.83;;
572;SDS011;271;51.114;13.780;2023-04-06T00:22:55;17.27;;;3.00;;
572;SDS011;271;51.114;13.780;2023-04-06T00:25:42;20.55;;;3.33;;
572;SDS011;271;51.114;13.780;2023-04-06T00:28:30;18.42;;;3.47;;
572;SDS011;271;51.114;13.780;2023-04-06T00:31:18;17.67;;;3.72;;
572;SDS011;271;51.114;13.780;2023-04-06T00:34:06;16.90;;;3.25;;
572;SDS011;271;51.114;13.780;2023-04-06T00:36:54;17.73;;;3.28;;
572;SDS011;271;51.114;13.780;2023-04-06T00:39:43;16.67;;;3.22;;
572;SDS011;271;51.114;13.780;2023-04-06T00:42:31;17.05;;;3.38;;
572;SDS011;271;51.114;13.780;2023-04-06T00:45:19;17.20;;;3.13;;
572;SDS011;271;51.114;13.780;2023-04-06T00:48:07;17.70;;;3.33;;
572;SDS011;271;51.114;13.780;2023-04-06T00:50:55;16.80;;;3.50;;
572;SDS011;271;51.114;13.780;2023-04-06T00:53:44;16.85;;;3.00;;
572;SDS011;271;51.114;13.780;2023-04-06T00:56:34;17.08;;;3.03;;
572;SDS011;271;51.114;13.780;2023-04-06T00:59:23;16.25;;;2.78;;
572;SDS011;271;51.114;13.780;2023-04-06T01:02:10;15.95;;;2.85;;
572;SDS011;271;51.114;13.780;2023-04-06T01:04:58;17.83;;;2.20;;
572;SDS011;271;51.114;13.780;2023-04-06T01:07:47;17.98;;;3.15;;
572;SDS011;271;51.114;13.780;2023-04-06T01:10:35;17.38;;;2.92;;
572;SDS011;271;51.114;13.780;2023-04-06T01:13:24;16.90;;;2.80;;
572;SDS011;271;51.114;13.780;2023-04-06T01:16:12;17.15;;;2.90;;
572;SDS011;271;51.114;13.780;2023-04-06T01:19:00;16.00;;;3.00;;
572;SDS011;271;51.114;13.780;2023-04-06T01:21:48;17.23;;;3.15;;
572;SDS011;271;51.114;13.780;2023-04-06T01:24:37;16.42;;;2.95;;
572;SDS011;271;51.114;13.780;2023-04-06T01:27:25;18.83;;;3.25;;
572;SDS011;271;51.114;13.780;2023-04-06T01:30:14;16.98;;;3.00;;
572;SDS011;271;51.114;13.780;2023-04-06T01:33:03;17.00;;;2.58;;
572;SDS011;271;51.114;13.780;2023-04-06T01:35:50;17.08;;;3.15;;
572;SDS011;271;51.114;13.780;2023-04-06T01:38:38;16.08;;;3.05;;
572;SDS011;271;51.114;13.780;2023-04-06T01:41:28;16.63;;;2.95;;
572;SDS011;271;51.114;13.780;2023-04-06T01:44:16;17.92;;;3.00;;
572;SDS011;271;51.114;13.780;2023-04-06T01:47:05;20.23;;;3.30;;
572;SDS011;271;51.114;13.780;2023-04-06T01:49:53;16.67;;;2.88;;
572;SDS011;271;51.114;13.780;2023-04-06T01:52:41;19.08;;;3.38;;
572;SDS011;271;51.114;13.780;2023-04-06T01:55:28;17.20;;;3.40;;
572;SDS011;271;51.114;13.780;2023-04-06T01:58:18;19.13;;;3.60;;
572;SDS011;271;51.114;13.780;2023-04-06T02:01:06;17.20;;;2.92;;
572;SDS011;271;51.114;13.780;2023-04-06T02:03:54;17.85;;;3.15;;
572;SDS011;271;51.114;13.780;2023-04-06T02:06:41;17.30;;;3.13;;
572;SDS011;271;51.114;13.780;2023-04-06T02:09:29;17.05;;;3.15;;
572;SDS011;271;51.114;13.780;2023-04-06T02:12:17;18.10;;;3.53;;
572;SDS011;271;51.114;13.780;2023-04-06T02:15:07;16.63;;;3.05;;
572;SDS011;271;51.114;13.780;2023-04-06T02:17:56;17.75;;;3.10;;
572;SDS011;271;51.114;13.780;2023-04-06T02:20:45;16.35;;;3.05;;
572;SDS011;271;51.114;13.780;2023-04-06T02:23:33;17.80;;;3.10;;
572;SDS011;271;51.114;13.780;2023-04-06T02:26:21;17.90;;;2.88;;
572;SDS011;271;51.114;13.780;2023-04-06T02:29:09;18.00;;;3.13;;
572;SDS011;271;51.114;13.780;2023-04-06T02:31:58;17.80;;;3.40;;
572;SDS011;271;51.114;13.780;2023-04-06T02:34:46;18.80;;;3.78;;
572;SDS011;271;51.114;13.780;2023-04-06T02:37:34;17.85;;;3.50;;
572;SDS011;271;51.114;13.780;2023-04-06T02:40:22;16.77;;;2.80;;
572;SDS011;271;51.114;13.780;2023-04-06T02:43:10;16.95;;;3.33;;
572;SDS011;271;51.114;13.780;2023-04-06T02:45:57;17.20;;;3.20;;
572;SDS011;271;51.114;13.780;2023-04-06T02:48:47;17.85;;;3.55;;
572;SDS011;271;51.114;13.780;2023-04-06T02:51:34;18.55;;;3.50;;
572;SDS011;271;51.114;13.780;2023-04-06T02:54:22;18.23;;;3.45;;
572;SDS011;271;51.114;13.780;2023-04-06T02:57:10;17.05;;;3.00;;
572;SDS011;271;51.114;13.780;2023-04-06T02:59:58;17.50;;;3.22;;
572;SDS011;271;51.114;13.780;2023-04-06T03:02:46;18.05;;;3.15;;
572;SDS011;271;51.114;13.780;2023-04-06T03:05:35;16.63;;;2.83;;
572;SDS011;271;51.114;13.780;2023-04-06T03:08:23;19.10;;;3.20;;
572;SDS011;271;51.114;13.780;2023-04-06T03:11:11;16.38;;;3.00;;
572;SDS011;271;51.114;13.780;2023-04-06T03:13:58;17.10;;;3.13;;
572;SDS011;271;51.114;13.780;2023-04-06T03:16:46;17.05;;;3.20;;
572;SDS011;271;51.114;13.780;2023-04-06T03:19:34;18.48;;;3.53;;
572;SDS011;271;51.114;13.780;2023-04-06T03:22:23;16.70;;;3.22;;
572;SDS011;271;51.114;13.780;2023-04-06T03:25:12;18.42;;;3.13;;
572;SDS011;271;51.114;13.780;2023-04-06T03:27:59;17.95;;;3.47;;
572;SDS011;271;51.114;13.780;2023-04-06T03:30:48;17.45;;;3.35;;
572;SDS011;271;51.114;13.780;2023-04-06T03:33:36;17.10;;;3.58;;
572;SDS011;271;51.114;13.780;2023-04-06T03:36:24;17.23;;;3.30;;
572;SDS011;271;51.114;13.780;2023-04-06T03:39:13;18.00;;;3.47;;
572;SDS011;271;51.114;13.780;2023-04-06T03:42:01;17.00;;;3.50;;
572;SDS011;271;51.114;13.780;2023-04-06T03:44:49;17.60;;;2.95;;
572;SDS011;271;51.114;13.780;2023-04-06T03:47:37;17.60;;;3.45;;
572;SDS011;271;51.114;13.780;2023-04-06T03:50:25;18.38;;;3.78;;
572;SDS011;271;51.114;13.780;2023-04-06T03:53:13;20.98;;;3.60;;
572;SDS011;271;51.114;13.780;2023-04-06T03:56:02;18.70;;;3.97;;
572;SDS011;271;51.114;13.780;2023-04-06T03:58:51;17.92;;;3.35;;
572;SDS011;271;51.114;13.780;2023-04-06T04:01:38;17.92;;;3.90;;
572;SDS011;271;51.114;13.780;2023-04-06T04:04:26;17.60;;;4.30;;
572;SDS011;271;51.114;13.780;2023-04-06T04:07:14;18.15;;;3.90;;
572;SDS011;271;51.114;13.780;2023-04-06T04:10:02;17.60;;;3.80;;
572;SDS011;271;51.114;13.780;2023-04-06T04:12:51;18.17;;;3.63;;
572;SDS011;271;51.114;13.780;2023-04-06T04:15:39;18.80;;;4.10;;
572;SDS011;271;51.114;13.780;2023-04-06T04:18:27;17.15;;;3.70;;
572;SDS011;271;51.114;13.780;2023-04-06T04:21:15;19.20;;;3.83;;
572;SDS011;271;51.114;13.780;2023-04-06T04:24:03;18.75;;;4.20;;
572;SDS011;271;51.114;13.780;2023-04-06T04:26:51;19.38;;;4.35;;
572;SDS011;271;51.114;13.780;2023-04-06T04:29:41;20.17;;;4.55;;
572;SDS011;271;51.114;13.780;2023-04-06T04:32:29;19.45;;;4.00;;
572;SDS011;271;51.114;13.780;2023-04-06T04:35:17;20.52;;;4.72;;
572;SDS011;271;51.114;13.780;2023-04-06T04:38:05;18.60;;;4.22;;
572;SDS011;271;51.114;13.780;2023-04-06T04:40:53;18.90;;;4.60;;
572;SDS011;271;51.114;13.780;2023-04-06T04:43:42;18.23;;;4.07;;
572;SDS011;271;51.114;13.780;2023-04-06T04:46:31;17.33;;;3.92;;
572;SDS011;271;51.114;13.780;2023-04-06T04:49:20;18.38;;;4.50;;
572;SDS011;271;51.114;13.780;2023-04-06T04:52:08;20.23;;;4.40;;
572;SDS011;271;51.114;13.780;2023-04-06T04:54:56;19.45;;;5.75;;
572;SDS011;271;51.114;13.780;2023-04-06T04:57:44;21.25;;;7.95;;
572;SDS011;271;51.114;13.780;2023-04-06T05:00:32;19.25;;;6.35;;
572;SDS011;271;51.114;13.780;2023-04-06T05:03:21;19.55;;;4.25;;
572;SDS011;271;51.114;13.780;2023-04-06T05:06:11;18.60;;;4.50;;
572;SDS011;271;51.114;13.780;2023-04-06T05:08:59;19.05;;;4.80;;
572;SDS011;271;51.114;13.780;2023-04-06T05:11:47;18.95;;;5.20;;
572;SDS011;271;51.114;13.780;2023-04-06T05:14:35;18.77;;;5.00;;
572;SDS011;271;51.114;13.780;2023-04-06T05:17:23;20.08;;;4.90;;
572;SDS011;271;51.114;13.780;2023-04-06T05:20:13;19.00;;;4.97;;
572;SDS011;271;51.114;13.780;2023-04-06T05:23:01;20.48;;;5.65;;
572;SDS011;271;51.114;13.780;2023-04-06T05:25:49;19.92;;;4.82;;
572;SDS011;271;51.114;13.780;2023-04-06T05:28:37;18.92;;;6.03;;
572;SDS011;271;51.114;13.780;2023-04-06T05:31:25;23.83;;;6.25;;
572;SDS011;271;51.114;13.780;2023-04-06T05:34:13;21.25;;;5.93;;
572;SDS011;271;51.114;13.780;2023-04-06T05:37:02;21.30;;;6.15;;
572;SDS011;271;51.114;13.780;2023-04-06T05:39:50;20.63;;;6.35;;
572;SDS011;271;51.114;13.780;2023-04-06T05:42:38;19.58;;;5.30;;
572;SDS011;271;51.114;13.780;2023-04-06T05:45:26;20.95;;;5.97;;
572;SDS011;271;51.114;13.780;2023-04-06T05:48:14;20.98;;;6.05;;
572;SDS011;271;51.114;13.780;2023-04-06T05:51:02;22.60;;;6.10;;
572;SDS011;271;51.114;13.780;2023-04-06T05:53:53;19.10;;;5.50;;
572;SDS011;271;51.114;13.780;2023-04-06T05:56:41;19.15;;;4.68;;
572;SDS011;271;51.114;13.780;2023-04-06T05:59:29;17.60;;;4.28;;
572;SDS011;271;51.114;13.780;2023-04-06T06:02:17;19.50;;;4.60;;
572;SDS011;271;51.114;13.780;2023-04-06T06:05:05;18.05;;;3.88;;
572;SDS011;271;51.114;13.780;2023-04-06T06:07:53;21.13;;;4.20;;
572;SDS011;271;51.114;13.780;2023-04-06T06:10:43;20.23;;;5.22;;
572;SDS011;271;51.114;13.780;2023-04-06T06:13:30;20.15;;;5.03;;
572;SDS011;271;51.114;13.780;2023-04-06T06:16:18;22.48;;;4.68;;
572;SDS011;271;51.114;13.780;2023-04-06T06:19:06;20.20;;;4.57;;
572;SDS011;271;51.114;13.780;2023-04-06T06:21:54;22.40;;;3.80;;
572;SDS011;271;51.114;13.780;2023-04-06T06:24:42;17.17;;;3.33;;
572;SDS011;271;51.114;13.780;2023-04-06T06:27:32;18.30;;;3.67;;
572;SDS011;271;51.114;13.780;2023-04-06T06:30:19;17.30;;;3.67;;
572;SDS011;271;51.114;13.780;2023-04-06T06:33:07;15.90;;;3.03;;
572;SDS011;271;51.114;13.780;2023-04-06T06:35:55;16.37;;;3.73;;
572;SDS011;271;51.114;13.780;2023-04-06T06:38:43;19.37;;;4.63;;
572;SDS011;271;51.114;13.780;2023-04-06T06:41:31;17.53;;;3.93;;
572;SDS011;271;51.114;13.780;2023-04-06T06:44:21;17.33;;;3.93;;
572;SDS011;271;51.114;13.780;2023-04-06T06:47:09;17.47;;;4.23;;
572;SDS011;271;51.114;13.780;2023-04-06T06:49:56;18.10;;;4.40;;
572;SDS011;271;51.114;13.780;2023-04-06T06:52:44;17.23;;;4.30;;
572;SDS011;271;51.114;13.780;2023-04-06T06:55:32;19.80;;;4.23;;
572;SDS011;271;51.114;13.780;2023-04-06T06:58:20;17.50;;;5.00;;
572;SDS011;271;51.114;13.780;2023-04-06T07:01:09;19.50;;;4.70;;
572;SDS011;271;51.114;13.780;2023-04-06T07:03:57;19.50;;;5.30;;
572;SDS011;271;51.114;13.780;2023-04-06T07:06:45;18.60;;;4.80;;
572;SDS011;271;51.114;13.780;2023-04-06T07:09:32;19.00;;;5.83;;
572;SDS011;271;51.114;13.780;2023-04-06T07:12:20;18.70;;;5.43;;
572;SDS011;271;51.114;13.780;2023-04-06T07:15:09;18.80;;;5.77;;
572;SDS011;271;51.114;13.780;2023-04-06T07:17:59;17.80;;;4.90;;
572;SDS011;271;51.114;13.780;2023-04-06T07:20:47;17.70;;;5.67;;
572;SDS011;271;51.114;13.780;2023-04-06T07:23:34;17.70;;;5.20;;
572;SDS011;271;51.114;13.780;2023-04-06T07:26:22;18.00;;;4.33;;
572;SDS011;271;51.114;13.780;2023-04-06T07:29:11;19.00;;;4.80;;
572;SDS011;271;51.114;13.780;2023-04-06T07:31:58;17.10;;;4.50;;
572;SDS011;271;51.114;13.780;2023-04-06T07:34:48;17.73;;;4.33;;
572;SDS011;271;51.114;13.780;2023-04-06T07:37:35;18.40;;;4.33;;
572;SDS011;271;51.114;13.780;2023-04-06T07:40:23;18.13;;;3.67;;
572;SDS011;271;51.114;13.780;2023-04-06T07:43:12;16.70;;;3.73;;
572;SDS011;271;51.114;13.780;2023-04-06T07:45:59;15.80;;;3.83;;
572;SDS011;271;51.114;13.780;2023-04-06T07:48:48;16.43;;;3.77;;
572;SDS011;271;51.114;13.780;2023-04-06T07:51:38;16.23;;;3.07;;
572;SDS011;271;51.114;13.780;2023-04-06T07:54:26;15.90;;;3.40;;
572;SDS011;271;51.114;13.780;2023-04-06T07:57:14;15.80;;;2.93;;
572;SDS011;271;51.114;13.780;2023-04-06T08:00:02;17.40;;;3.83;;
572;SDS011;271;51.114;13.780;2023-04-06T08:02:50;15.50;;;2.57;;
572;SDS011;271;51.114;13.780;2023-04-06T08:05:38;17.47;;;3.60;;
572;SDS011;271;51.114;13.780;2023-04-06T08:08:28;15.77;;;2.80;;
572;SDS011;271;51.114;13.780;2023-04-06T08:11:16;15.93;;;3.10;;
572;SDS011;271;51.114;13.780;2023-04-06T08:14:04;15.40;;;2.70;;
572;SDS011;271;51.114;13.780;2023-04-06T08:16:52;15.90;;;2.70;;
572;SDS011;271;51.114;13.780;2023-04-06T08:19:41;16.13;;;2.70;;
572;SDS011;271;51.114;13.780;2023-04-06T08:22:30;15.67;;;2.67;;
572;SDS011;271;51.114;13.780;2023-04-06T08:25:19;15.00;;;2.60;;
572;SDS011;271;51.114;13.780;2023-04-06T08:28:07;15.50;;;3.00;;
572;SDS011;271;51.114;13.780;2023-04-06T08:30:55;16.20;;;3.40;;
572;SDS011;271;51.114;13.780;2023-04-06T08:33:43;17.40;;;2.53;;
572;SDS011;271;51.114;13.780;2023-04-06T08:36:31;17.40;;;4.40;;
572;SDS011;271;51.114;13.780;2023-04-06T08:39:19;16.23;;;3.50;;
572;SDS011;271;51.114;13.780;2023-04-06T08:42:19;15.87;;;2.97;;
572;SDS011;271;51.114;13.780;2023-04-06T08:45:08;15.37;;;2.80;;
572;SDS011;271;51.114;13.780;2023-04-06T08:47:57;16.50;;;2.90;;
572;SDS011;271;51.114;13.780;2023-04-06T08:50:47;15.60;;;3.00;;
572;SDS011;271;51.114;13.780;2023-04-06T08:53:35;15.00;;;2.83;;
572;SDS011;271;51.114;13.780;2023-04-06T08:56:24;16.40;;;2.63;;
572;SDS011;271;51.114;13.780;2023-04-06T08:59:14;16.40;;;3.00;;
572;SDS011;271;51.114;13.780;2023-04-06T09:02:03;15.80;;;3.00;;
572;SDS011;271;51.114;13.780;2023-04-06T09:04:52;16.00;;;3.23;;
572;SDS011;271;51.114;13.780;2023-04-06T09:07:41;16.00;;;2.90;;
572;SDS011;271;51.114;13.780;2023-04-06T09:10:29;19.27;;;3.27;;
572;SDS011;271;51.114;13.780;2023-04-06T09:13:17;17.93;;;3.03;;
572;SDS011;271;51.114;13.780;2023-04-06T09:16:06;16.10;;;3.07;;
572;SDS011;271;51.114;13.780;2023-04-06T09:19:03;15.80;;;2.80;;
572;SDS011;271;51.114;13.780;2023-04-06T09:22:00;15.87;;;3.07;;
572;SDS011;271;51.114;13.780;2023-04-06T09:24:49;15.40;;;2.87;;
572;SDS011;271;51.114;13.780;2023-04-06T09:27:38;15.90;;;3.07;;
572;SDS011;271;51.114;13.780;2023-04-06T09:30:26;15.30;;;2.87;;
572;SDS011;271;51.114;13.780;2023-04-06T09:33:21;15.20;;;2.60;;
572;SDS011;271;51.114;13.780;2023-04-06T09:36:09;15.57;;;3.30;;
572;SDS011;271;51.114;13.780;2023-04-06T09:38:58;15.50;;;3.23;;
572;SDS011;271;51.114;13.780;2023-04-06T09:41:49;17.27;;;3.03;;
572;SDS011;271;51.114;13.780;2023-04-06T09:44:38;15.03;;;2.80;;
572;SDS011;271;51.114;13.780;2023-04-06T09:47:26;15.93;;;3.10;;
572;SDS011;271;51.114;13.780;2023-04-06T09:50:15;15.57;;;3.37;;
572;SDS011;271;51.114;13.780;2023-04-06T09:53:05;15.57;;;2.60;;
572;SDS011;271;51.114;13.780;2023-04-06T09:55:54;16.10;;;2.83;;
572;SDS011;271;51.114;13.780;2023-04-06T09:58:49;15.10;;;2.40;;
572;SDS011;271;51.114;13.780;2023-04-06T10:01:46;15.00;;;2.40;;
572;SDS011;271;51.114;13.780;2023-04-06T10:04:39;15.90;;;2.73;;
572;SDS011;271;51.114;13.780;2023-04-06T10:07:31;15.60;;;2.93;;
572;SDS011;271;51.114;13.780;2023-04-06T10:10:20;15.57;;;2.87;;
572;SDS011;271;51.114;13.780;2023-04-06T10:13:09;17.17;;;2.80;;
572;SDS011;271;51.114;13.780;2023-04-06T10:15:58;15.43;;;2.83;;
572;SDS011;271;51.114;13.780;2023-04-06T10:18:48;16.83;;;2.93;;
572;SDS011;271;51.114;13.780;2023-04-06T10:21:40;16.37;;;2.83;;
572;SDS011;271;51.114;13.780;2023-04-06T10:24:32;16.43;;;3.00;;
572;SDS011;271;51.114;13.780;2023-04-06T10:27:27;16.50;;;3.07;;
572;SDS011;271;51.114;13.780;2023-04-06T10:30:15;15.60;;;3.37;;
572;SDS011;271;51.114;13.780;2023-04-06T10:33:12;15.57;;;3.00;;
572;SDS011;271;51.114;13.780;2023-04-06T10:36:09;14.93;;;2.80;;
572;SDS011;271;51.114;13.780;2023-04-06T10:38:58;18.60;;;3.63;;
572;SDS011;271;51.114;13.780;2023-04-06T10:41:49;17.63;;;4.10;;
572;SDS011;271;51.114;13.780;2023-04-06T10:44:41;18.80;;;3.67;;
572;SDS011;271;51.114;13.780;2023-04-06T10:47:38;15.53;;;2.60;;
572;SDS011;271;51.114;13.780;2023-04-06T10:50:26;17.30;;;3.40;;
572;SDS011;271;51.114;13.780;2023-04-06T10:53:20;17.03;;;3.10;;
572;SDS011;271;51.114;13.780;2023-04-06T10:56:10;16.20;;;3.33;;
572;SDS011;271;51.114;13.780;2023-04-06T10:59:17;15.37;;;3.23;;
572;SDS011;271;51.114;13.780;2023-04-06T11:02:07;16.40;;;3.50;;
572;SDS011;271;51.114;13.780;2023-04-06T11:04:55;17.80;;;3.87;;
572;SDS011;271;51.114;13.780;2023-04-06T11:07:44;17.27;;;3.23;;
572;SDS011;271;51.114;13.780;2023-04-06T11:10:32;15.90;;;3.33;;
572;SDS011;271;51.114;13.780;2023-04-06T11:13:20;15.83;;;3.17;;
572;SDS011;271;51.114;13.780;2023-04-06T11:16:13;17.20;;;3.23;;
572;SDS011;271;51.114;13.780;2023-04-06T11:19:02;15.43;;;3.23;;
572;SDS011;271;51.114;13.780;2023-04-06T11:21:52;17.97;;;3.90;;
572;SDS011;271;51.114;13.780;2023-04-06T11:24:40;16.50;;;3.93;;
572;SDS011;271;51.114;13.780;2023-04-06T11:27:28;16.77;;;4.40;;
572;SDS011;271;51.114;13.780;2023-04-06T11:30:18;15.90;;;3.70;;
572;SDS011;271;51.114;13.780;2023-04-06T11:33:07;16.47;;;4.30;;
572;SDS011;271;51.114;13.780;2023-04-06T11:35:56;16.70;;;3.50;;
572;SDS011;271;51.114;13.780;2023-04-06T11:38:44;15.97;;;3.53;;
572;SDS011;271;51.114;13.780;2023-04-06T11:41:32;16.60;;;3.93;;
572;SDS011;271;51.114;13.780;2023-04-06T11:44:31;17.00;;;4.60;;
572;SDS011;271;51.114;13.780;2023-04-06T11:47:28;16.13;;;4.10;;
572;SDS011;271;51.114;13.780;2023-04-06T11:50:22;15.53;;;3.70;;
572;SDS011;271;51.114;13.780;2023-04-06T11:53:18;16.37;;;3.73;;
572;SDS011;271;51.114;13.780;2023-04-06T11:56:09;16.47;;;3.63;;
572;SDS011;271;51.114;13.780;2023-04-06T11:58:57;16.70;;;3.97;;
572;SDS011;271;51.114;13.780;2023-04-06T12:01:46;16.20;;;4.07;;
572;SDS011;271;51.114;13.780;2023-04-06T12:04:34;16.20;;;3.73;;
572;SDS011;271;51.114;13.780;2023-04-06T12:07:27;16.67;;;4.37;;
572;SDS011;271;51.114;13.780;2023-04-06T12:10:15;16.50;;;4.10;;
572;SDS011;271;51.114;13.780;2023-04-06T12:13:03;16.20;;;3.63;;
572;SDS011;271;51.114;13.780;2023-04-06T12:15:51;16.53;;;4.07;;
572;SDS011;271;51.114;13.780;2023-04-06T12:18:39;16.23;;;3.63;;
572;SDS011;271;51.114;13.780;2023-04-06T12:21:27;17.13;;;3.97;;
572;SDS011;271;51.114;13.780;2023-04-06T12:24:21;15.97;;;3.73;;
572;SDS011;271;51.114;13.780;2023-04-06T12:27:09;17.17;;;4.00;;
572;SDS011;271;51.114;13.780;2023-04-06T12:29:57;16.57;;;3.30;;
572;SDS011;271;51.114;13.780;2023-04-06T12:32:45;18.00;;;5.00;;
572;SDS011;271;51.114;13.780;2023-04-06T12:35:33;16.33;;;3.63;;
572;SDS011;271;51.114;13.780;2023-04-06T12:38:21;15.73;;;3.20;;
572;SDS011;271;51.114;13.780;2023-04-06T12:41:13;16.03;;;3.73;;
572;SDS011;271;51.114;13.780;2023-04-06T12:44:01;17.90;;;3.70;;
572;SDS011;271;51.114;13.780;2023-04-06T12:46:50;16.20;;;3.57;;
572;SDS011;271;51.114;13.780;2023-04-06T12:49:38;15.93;;;3.73;;
572;SDS011;271;51.114;13.780;2023-04-06T12:52:27;17.90;;;3.73;;
572;SDS011;271;51.114;13.780;2023-04-06T12:55:17;18.27;;;3.30;;
572;SDS011;271;51.114;13.780;2023-04-06T12:58:07;16.30;;;3.57;;
572;SDS011;271;51.114;13.780;2023-04-06T13:00:57;15.93;;;3.53;;
572;SDS011;271;51.114;13.780;2023-04-06T13:03:48;16.37;;;3.50;;
572;SDS011;271;51.114;13.780;2023-04-06T13:06:37;17.83;;;3.73;;
572;SDS011;271;51.114;13.780;2023-04-06T13:09:25;15.67;;;3.43;;
572;SDS011;271;51.114;13.780;2023-04-06T13:12:12;15.20;;;3.07;;
572;SDS011;271;51.114;13.780;2023-04-06T13:15:02;15.90;;;3.30;;
572;SDS011;271;51.114;13.780;2023-04-06T13:17:50;17.30;;;3.70;;
572;SDS011;271;51.114;13.780;2023-04-06T13:20:38;15.73;;;3.37;;
572;SDS011;271;51.114;13.780;2023-04-06T13:23:27;16.00;;;3.87;;
572;SDS011;271;51.114;13.780;2023-04-06T13:26:15;16.80;;;4.03;;
572;SDS011;271;51.114;13.780;2023-04-06T13:29:03;16.30;;;3.57;;
572;SDS011;271;51.114;13.780;2023-04-06T13:31:53;16.17;;;3.53;;
572;SDS011;271;51.114;13.780;2023-04-06T13:34:41;16.70;;;3.93;;
572;SDS011;271;51.114;13.780;2023-04-06T13:37:30;16.03;;;3.30;;
572;SDS011;271;51.114;13.780;2023-04-06T13:40:18;15.90;;;3.70;;
572;SDS011;271;51.114;13.780;2023-04-06T13:43:06;16.40;;;3.20;;
572;SDS011;271;51.114;13.780;2023-04-06T13:45:56;17.33;;;4.10;;
572;SDS011;271;51.114;13.780;2023-04-06T13:48:47;18.77;;;3.97;;
572;SDS011;271;51.114;13.780;2023-04-06T13:51:35;16.17;;;3.43;;
572;SDS011;271;51.114;13.780;2023-04-06T13:54:23;15.80;;;3.80;;
572;SDS011;271;51.114;13.780;2023-04-06T13:57:13;16.20;;;4.03;;
572;SDS011;271;51.114;13.780;2023-04-06T14:00:01;15.70;;;3.70;;
572;SDS011;271;51.114;13.780;2023-04-06T14:02:49;15.73;;;3.13;;
572;SDS011;271;51.114;13.780;2023-04-06T14:05:39;14.63;;;3.00;;
572;SDS011;271;51.114;13.780;2023-04-06T14:08:27;17.33;;;3.67;;
572;SDS011;271;51.114;13.780;2023-04-06T14:11:17;16.97;;;3.60;;
572;SDS011;271;51.114;13.780;2023-04-06T14:14:05;16.07;;;3.57;;
572;SDS011;271;51.114;13.780;2023-04-06T14:16:53;15.90;;;3.67;;
572;SDS011;271;51.114;13.780;2023-04-06T14:19:41;15.80;;;3.63;;
572;SDS011;271;51.114;13.780;2023-04-06T14:22:39;16.53;;;3.70;;
572;SDS011;271;51.114;13.780;2023-04-06T14:25:28;17.70;;;3.73;;
572;SDS011;271;51.114;13.780;2023-04-06T14:28:17;16.80;;;3.50;;
572;SDS011;271;51.114;13.780;2023-04-06T14:31:09;15.47;;;3.23;;
572;SDS011;271;51.114;13.780;2023-04-06T14:34:00;15.80;;;3.50;;
572;SDS011;271;51.114;13.780;2023-04-06T14:36:49;16.47;;;3.50;;
572;SDS011;271;51.114;13.780;2023-04-06T14:39:38;15.90;;;3.07;;
572;SDS011;271;51.114;13.780;2023-04-06T14:42:25;16.70;;;3.30;;
572;SDS011;271;51.114;13.780;2023-04-06T14:45:13;16.33;;;3.63;;
572;SDS011;271;51.114;13.780;2023-04-06T14:48:03;16.13;;;3.17;;
572;SDS011;271;51.114;13.780;2023-04-06T14:50:52;16.50;;;3.80;;
572;SDS011;271;51.114;13.780;2023-04-06T14:53:40;15.80;;;3.50;;
572;SDS011;271;51.114;13.780;2023-04-06T14:56:30;15.90;;;3.73;;
572;SDS011;271;51.114;13.780;2023-04-06T14:59:18;15.30;;;3.23;;
572;SDS011;271;51.114;13.780;2023-04-06T15:02:05;15.67;;;3.77;;
572;SDS011;271;51.114;13.780;2023-04-06T15:04:53;17.33;;;3.53;;
572;SDS011;271;51.114;13.780;2023-04-06T15:07:41;16.10;;;3.60;;
572;SDS011;271;51.114;13.780;2023-04-06T15:10:30;15.90;;;4.37;;
572;SDS011;271;51.114;13.780;2023-04-06T15:13:20;16.30;;;2.77;;
572;SDS011;271;51.114;13.780;2023-04-06T15:16:07;15.67;;;3.40;;
572;SDS011;271;51.114;13.780;2023-04-06T15:18:55;15.43;;;3.50;;
572;SDS011;271;51.114;13.780;2023-04-06T15:21:43;16.20;;;4.33;;
572;SDS011;271;51.114;13.780;2023-04-06T15:24:31;15.77;;;3.60;;
572;SDS011;271;51.114;13.780;2023-04-06T15:27:18;16.50;;;3.50;;
572;SDS011;271;51.114;13.780;2023-04-06T15:30:11;15.20;;;3.30;;
572;SDS011;271;51.114;13.780;2023-04-06T15:33:00;16.30;;;3.73;;
572;SDS011;271;51.114;13.780;2023-04-06T15:35:49;15.97;;;3.90;;
572;SDS011;271;51.114;13.780;2023-04-06T15:38:37;15.67;;;3.53;;
572;SDS011;271;51.114;13.780;2023-04-06T15:41:25;16.37;;;3.40;;
572;SDS011;271;51.114;13.780;2023-04-06T15:44:13;17.63;;;4.13;;
572;SDS011;271;51.114;13.780;2023-04-06T15:47:05;18.10;;;4.53;;
572;SDS011;271;51.114;13.780;2023-04-06T15:49:53;15.47;;;3.90;;
572;SDS011;271;51.114;13.780;2023-04-06T15:52:41;15.93;;;3.97;;
572;SDS011;271;51.114;13.780;2023-04-06T15:55:29;16.67;;;4.17;;
572;SDS011;271;51.114;13.780;2023-04-06T15:58:19;16.30;;;3.73;;
572;SDS011;271;51.114;13.780;2023-04-06T16:01:11;15.60;;;3.37;;
572;SDS011;271;51.114;13.780;2023-04-06T16:04:01;15.70;;;3.27;;
572;SDS011;271;51.114;13.780;2023-04-06T16:06:53;15.90;;;3.77;;
572;SDS011;271;51.114;13.780;2023-04-06T16:09:40;16.48;;;4.03;;
572;SDS011;271;51.114;13.780;2023-04-06T16:12:29;16.30;;;4.00;;
572;SDS011;271;51.114;13.780;2023-04-06T16:15:17;16.63;;;4.35;;
572;SDS011;271;51.114;13.780;2023-04-06T16:18:05;17.40;;;4.32;;
572;SDS011;271;51.114;13.780;2023-04-06T16:20:54;17.23;;;3.97;;
572;SDS011;271;51.114;13.780;2023-04-06T16:23:44;16.58;;;4.18;;
572;SDS011;271;51.114;13.780;2023-04-06T16:26:33;15.03;;;3.30;;
572;SDS011;271;51.114;13.780;2023-04-06T16:29:21;15.60;;;3.60;;
572;SDS011;271;51.114;13.780;2023-04-06T16:32:10;16.60;;;3.60;;
572;SDS011;271;51.114;13.780;2023-04-06T16:34:58;15.30;;;3.50;;
572;SDS011;271;51.114;13.780;2023-04-06T16:37:48;16.17;;;3.70;;
572;SDS011;271;51.114;13.780;2023-04-06T16:40:36;16.95;;;3.85;;
572;SDS011;271;51.114;13.780;2023-04-06T16:43:25;17.92;;;4.07;;
572;SDS011;271;51.114;13.780;2023-04-06T16:46:13;17.30;;;3.93;;
572;SDS011;271;51.114;13.780;2023-04-06T16:49:01;17.88;;;4.90;;
572;SDS011;271;51.114;13.780;2023-04-06T16:51:50;23.03;;;4.80;;
572;SDS011;271;51.114;13.780;2023-04-06T16:54:39;16.23;;;4.37;;
572;SDS011;271;51.114;13.780;2023-04-06T16:57:27;16.20;;;4.10;;
572;SDS011;271;51.114;13.780;2023-04-06T17:00:15;15.70;;;3.43;;
572;SDS011;271;51.114;13.780;2023-04-06T17:03:04;15.47;;;3.83;;
572;SDS011;271;51.114;13.780;2023-04-06T17:05:54;16.07;;;4.20;;
572;SDS011;271;51.114;13.780;2023-04-06T17:08:42;18.00;;;5.50;;
572;SDS011;271;51.114;13.780;2023-04-06T17:11:32;17.90;;;5.60;;
572;SDS011;271;51.114;13.780;2023-04-06T17:14:20;16.35;;;4.28;;
572;SDS011;271;51.114;13.780;2023-04-06T17:17:08;18.52;;;4.60;;
572;SDS011;271;51.114;13.780;2023-04-06T17:19:56;17.30;;;5.60;;
572;SDS011;271;51.114;13.780;2023-04-06T17:22:50;17.20;;;4.33;;
572;SDS011;271;51.114;13.780;2023-04-06T17:25:38;17.00;;;3.70;;
572;SDS011;271;51.114;13.780;2023-04-06T17:28:27;16.35;;;3.80;;